Time;durP1;ratioP1;P1;durP2;ratioP2;P2;SDS_P1;SDS_P2;PMS_P1;PMS_P2;Temp;Humidity;BMP_temperature;BMP_pressure;BME280_temperature;BME280_humidity;BME280_pressure;Samples;Min_cycle;Max_cycle;Signal;HPM_P1;HPM_P2
2022/10/25 00:01:52;;;;;;;;;;;;;;;17.46;81.94;100912.94;5043657;28;20036;-80
2022/10/25 00:04:36;;;;;;;19.85;10.63;;;;;;;17.35;82.35;100917.38;5041410;28;19912;-78
2022/10/25 00:07:20;;;;;;;14.82;9.85;;;;;;;17.36;82.26;100910.72;5037887;28;20041;-80
2022/10/25 00:10:06;;;;;;;24.23;10.15;;;;;;;17.35;81.98;100906.38;5052396;28;20044;-79
2022/10/25 00:12:50;;;;;;;24.08;10.27;;;;;;;17.30;82.44;100910.19;5052533;28;20036;-80
2022/10/25 00:15:35;;;;;;;24.58;10.82;;;;;;;17.55;81.40;100899.78;5039034;28;20052;-79
2022/10/25 00:18:19;;;;;;;22.40;9.90;;;;;;;17.59;80.93;100892.44;5052407;28;20041;-79
2022/10/25 00:21:04;;;;;;;17.13;9.52;;;;;;;17.30;81.74;100893.69;5052037;28;20068;-79
2022/10/25 00:23:50;;;;;;;19.90;10.15;;;;;;;17.20;82.78;100902.50;5051811;28;20408;-79
2022/10/25 00:26:35;;;;;;;24.33;12.40;;;;;;;17.41;81.93;100905.75;5038470;28;20048;-80
2022/10/25 00:29:20;;;;;;;29.75;13.70;;;;;;;17.03;83.18;100903.63;5041642;28;20436;-79
2022/10/25 00:32:04;;;;;;;14.25;9.13;;;;;;;16.89;84.12;100897.78;5051642;28;20041;-79
2022/10/25 00:34:49;;;;;;;19.35;12.18;;;;;;;16.78;85.23;100902.19;5037751;28;20055;-79
2022/10/25 00:37:34;;;;;;;24.23;13.00;;;;;;;16.79;84.99;100903.78;5037159;28;20037;-78
2022/10/25 00:40:19;;;;;;;28.10;12.82;;;;;;;16.74;85.14;100904.03;5039355;28;20526;-79
2022/10/25 00:43:04;;;;;;;;;;;;;;;16.82;84.73;100902.28;5038485;28;20041;-79
2022/10/25 00:45:49;;;;;;;27.90;12.13;;;;;;;16.78;84.96;100910.44;5051794;28;19913;-78
2022/10/25 00:48:33;;;;;;;;;;;;;;;16.82;84.83;100903.06;5052467;28;20399;-79
2022/10/25 00:51:23;;;;;;;19.30;11.45;;;;;;;16.74;84.83;100890.31;5031936;28;19913;-79
2022/10/25 00:54:11;;;;;;;28.05;12.88;;;;;;;16.67;85.11;100896.41;5031447;28;20049;-79
2022/10/25 00:57:01;;;;;;;32.15;12.95;;;;;;;16.59;85.08;100897.38;5032593;28;20037;-79
2022/10/25 00:59:46;;;;;;;28.55;13.13;;;;;;;16.56;85.42;100891.75;5032043;28;20049;-79
2022/10/25 01:02:31;;;;;;;18.13;11.55;;;;;;;16.55;84.80;100901.16;5031546;28;20056;-79
2022/10/25 01:05:17;;;;;;;21.98;12.73;;;;;;;16.47;84.63;100897.41;5033988;28;20510;-79
2022/10/25 01:08:04;;;;;;;21.55;11.68;;;;;;;16.40;84.77;100902.72;5031913;28;20041;-79
2022/10/25 01:10:49;;;;;;;21.17;10.73;;;;;;;16.27;85.30;100898.41;5031723;28;20040;-80
2022/10/25 01:13:35;;;;;;;23.13;10.32;;;;;;;16.31;85.54;100903.97;5033828;28;20052;-79
2022/10/25 01:16:43;;;;;;;22.30;11.30;;;;;;;16.26;86.25;100896.78;5032503;28;20037;-79
2022/10/25 01:19:49;;;;;;;24.77;12.90;;;;;;;16.31;86.03;100893.81;5031535;28;20037;-78
2022/10/25 01:22:52;;;;;;;26.63;10.88;;;;;;;16.33;86.27;100896.22;5018235;28;20046;-78
2022/10/25 01:25:56;;;;;;;22.50;10.35;;;;;;;16.27;85.27;100907.44;5035027;28;20431;-79
2022/10/25 01:29:00;;;;;;;25.33;9.80;;;;;;;16.38;84.68;100910.47;5040111;28;20044;-79
2022/10/25 01:31:51;;;;;;;19.35;10.63;;;;;;;16.35;84.83;100905.69;5041073;28;20068;-80
2022/10/25 01:34:46;;;;;;;18.35;10.98;;;;;;;16.45;84.50;100904.41;5019517;28;20041;-78
2022/10/25 01:37:31;;;;;;;21.10;10.20;;;;;;;16.37;85.38;100908.88;5016236;28;20115;-79
2022/10/25 01:40:39;;;;;;;15.70;8.18;;;;;;;16.38;85.23;100915.16;5031351;28;20052;-79
2022/10/25 01:44:03;;;;;;;21.50;10.43;;;;;;;16.31;85.76;100915.75;5037152;28;20511;-79
2022/10/25 01:46:53;;;;;;;20.98;9.13;;;;;;;16.71;83.19;100904.72;5034817;28;20033;-79
2022/10/25 01:50:02;;;;;;;18.60;9.48;;;;;;;16.48;84.00;100895.44;5021535;28;20048;-79
2022/10/25 01:52:46;;;;;;;18.23;8.48;;;;;;;16.48;84.17;100889.97;5023773;28;20056;-79
2022/10/25 01:55:49;;;;;;;21.77;10.52;;;;;;;16.48;84.25;100882.53;5034628;28;20412;-79
2022/10/25 01:58:50;;;;;;;24.25;9.60;;;;;;;16.49;84.36;100888.81;5034457;28;20038;-79
2022/10/25 02:01:34;;;;;;;14.65;9.20;;;;;;;16.50;84.64;100890.41;5034684;28;20060;-78
2022/10/25 02:04:36;;;;;;;18.25;9.05;;;;;;;16.51;84.68;100878.25;5034470;28;20052;-79
2022/10/25 02:07:34;;;;;;;20.77;9.57;;;;;;;16.50;84.59;100891.22;5034535;28;20519;-78
2022/10/25 02:10:27;;;;;;;17.60;9.48;;;;;;;16.64;82.77;100902.63;5034373;28;20052;-78
2022/10/25 02:13:12;;;;;;;19.27;9.73;;;;;;;16.64;82.98;100918.28;5034239;28;20049;-79
2022/10/25 02:16:06;;;;;;;19.63;11.00;;;;;;;16.71;83.98;100923.19;5034329;28;20048;-78
2022/10/25 02:18:57;;;;;;;23.52;10.05;;;;;;;16.74;83.69;100928.75;5034254;28;20042;-78
2022/10/25 02:21:45;;;;;;;17.92;10.52;;;;;;;16.78;83.53;100926.91;5044392;28;20037;-78
2022/10/25 02:24:31;;;;;;;24.98;9.80;;;;;;;16.85;83.64;100924.34;5041607;28;20044;-79
2022/10/25 02:27:19;;;;;;;23.48;11.15;;;;;;;16.90;83.32;100921.34;5053779;28;20523;-79
2022/10/25 02:30:05;;;;;;;19.45;10.05;;;;;;;16.92;82.63;100924.53;5027325;28;20500;-79
2022/10/25 02:32:50;;;;;;;16.40;9.05;;;;;;;16.86;82.92;100925.97;5033727;28;20052;-79
2022/10/25 02:35:38;;;;;;;19.70;9.93;;;;;;;16.80;83.34;100912.84;5050632;22;20051;31
2022/10/25 02:38:23;;;;;;;17.70;8.32;;;;;;;16.96;82.23;100919.94;4993115;28;20057;-79
2022/10/25 02:41:09;;;;;;;18.35;9.25;;;;;;;16.86;82.69;100914.19;5006696;28;20053;-80
2022/10/25 02:43:54;;;;;;;21.70;8.82;;;;;;;16.76;82.86;100900.97;4999271;28;20050;-79
2022/10/25 02:46:39;;;;;;;18.00;8.30;;;;;;;16.79;83.27;100905.72;4995012;28;20054;-79
2022/10/25 02:49:24;;;;;;;;;;;;;;;16.73;83.14;100898.91;5005933;28;20050;-82
2022/10/25 02:52:08;;;;;;;19.95;8.13;;;;;;;16.65;83.58;100906.97;4987749;28;19921;-77
2022/10/25 02:54:53;;;;;;;17.70;8.45;;;;;;;16.55;83.62;100903.91;4988811;28;20053;-80
2022/10/25 02:57:38;;;;;;;15.15;8.25;;;;;;;16.44;84.85;100897.31;4988538;28;20054;-81
2022/10/25 03:00:23;;;;;;;18.83;7.97;;;;;;;16.39;85.06;100887.38;4988901;28;20050;-81
2022/10/25 03:03:07;;;;;;;13.35;9.05;;;;;;;16.43;84.81;100887.47;4987876;28;20077;-79
2022/10/25 03:05:52;;;;;;;15.00;6.65;;;;;;;16.39;85.15;100886.56;4995409;28;20054;-81
2022/10/25 03:08:38;;;;;;;20.60;8.07;;;;;;;16.34;85.02;100892.31;5004093;28;20445;-81
2022/10/25 03:11:23;;;;;;;19.65;8.40;;;;;;;16.36;84.27;100888.06;4988471;28;20054;-81
2022/10/25 03:14:08;;;;;;;14.27;7.90;;;;;;;16.60;82.87;100887.19;4986460;28;20054;-81
2022/10/25 03:16:53;;;;;;;17.85;8.23;;;;;;;16.43;83.03;100884.72;4983540;28;20054;-82
2022/10/25 03:19:38;;;;;;;11.95;5.20;;;;;;;16.30;84.15;100884.00;4981331;28;20102;-80
2022/10/25 03:22:22;;;;;;;16.92;5.88;;;;;;;16.33;83.70;100885.22;4991582;28;20054;-81
2022/10/25 03:25:08;;;;;;;13.00;5.53;;;;;;;16.43;83.42;100891.00;4987097;28;20061;-82
2022/10/25 03:27:52;;;;;;;;;;;;;;;16.48;83.33;100889.97;4987421;28;20049;-81
2022/10/25 03:30:37;;;;;;;11.77;5.60;;;;;;;16.40;83.40;100897.22;4987553;28;19918;-81
2022/10/25 03:33:22;;;;;;;13.18;6.60;;;;;;;16.41;83.50;100898.00;5002973;28;20050;-82
2022/10/25 03:36:08;;;;;;;12.30;6.25;;;;;;;16.42;83.01;100905.06;4999585;28;20054;-82
2022/10/25 03:38:52;;;;;;;;;;;;;;;16.47;82.46;100897.41;4987378;28;20045;-81
2022/10/25 03:41:37;;;;;;;11.55;6.55;;;;;;;16.62;81.69;100904.91;4986396;28;19918;-81
2022/10/25 03:44:21;;;;;;;;;;;;;;;16.49;81.93;100916.28;5000172;28;20049;-82
2022/10/25 03:47:06;;;;;;;16.83;6.45;;;;;;;16.41;81.88;100914.47;4986648;28;19922;-81
2022/10/25 03:49:51;;;;;;;12.13;7.32;;;;;;;16.27;82.63;100926.63;4986614;28;20065;-81
2022/10/25 03:52:36;;;;;;;18.90;6.85;;;;;;;16.13;82.79;100908.97;4975719;28;20058;-82
2022/10/25 03:55:20;;;;;;;9.50;6.13;;;;;;;15.96;84.18;100914.72;4969162;29;20248;-80
2022/10/25 03:58:05;;;;;;;14.80;6.40;;;;;;;15.99;83.60;100916.78;4990683;28;20041;-79
2022/10/25 04:00:50;;;;;;;10.70;6.30;;;;;;;16.00;83.47;100921.91;4999336;28;20037;-79
2022/10/25 04:03:36;;;;;;;9.13;5.43;;;;;;;15.98;83.08;100915.19;5011821;28;20050;-80
2022/10/25 04:06:21;;;;;;;15.77;9.32;;;;;;;15.82;85.04;100910.41;4998594;28;20045;-79
2022/10/25 04:09:06;;;;;;;19.38;9.63;;;;;;;15.78;86.34;100914.19;4989265;28;20049;-81
2022/10/25 04:11:51;;;;;;;19.25;9.98;;;;;;;15.86;86.38;100917.94;4990005;28;20058;-80
2022/10/25 04:14:35;;;;;;;12.32;7.10;;;;;;;16.15;84.48;100912.94;4986822;28;20058;-81
2022/10/25 04:17:20;;;;;;;18.42;10.38;;;;;;;16.00;84.92;100921.91;4989349;28;20049;-81
2022/10/25 04:20:06;;;;;;;21.33;11.10;;;;;;;15.99;85.69;100931.31;5007339;28;20061;-79
2022/10/25 04:22:55;;;;;;;13.75;9.43;;;;;;;16.02;85.37;100929.78;4985201;28;20062;-81
2022/10/25 04:25:40;;;;;;;16.35;8.68;;;;;;;15.90;84.58;100933.34;4988357;28;20053;-81
2022/10/25 04:28:25;;;;;;;10.43;6.28;;;;;;;15.88;84.26;100932.91;5002854;28;20753;-81
2022/10/25 04:31:10;;;;;;;18.20;8.65;;;;;;;15.98;83.40;100939.88;4985755;28;20053;-80
2022/10/25 04:33:55;;;;;;;13.25;8.68;;;;;;;16.02;82.06;100944.31;4984090;28;20045;-81
2022/10/25 04:36:40;;;;;;;12.68;8.52;;;;;;;16.12;82.34;100956.75;4981942;28;20066;-81
2022/10/25 04:39:25;;;;;;;15.60;7.57;;;;;;;16.05;83.00;100953.81;4975904;28;20116;-80
2022/10/25 04:42:10;;;;;;;19.83;8.48;;;;;;;16.06;82.47;100958.94;4983773;28;20127;-79
2022/10/25 04:44:55;;;;;;;16.50;8.27;;;;;;;16.05;83.24;100971.03;4983417;28;20050;-81
2022/10/25 04:47:40;;;;;;;17.75;5.13;;;;;;;15.95;83.31;100957.81;4989358;28;20053;-81
2022/10/25 04:50:25;;;;;;;12.02;5.82;;;;;;;16.16;81.51;100961.19;5005481;28;20084;-81
2022/10/25 04:53:10;;;;;;;7.90;3.95;;;;;;;16.08;81.22;100961.34;4995020;28;20045;-81
2022/10/25 04:55:58;;;;;;;6.90;4.25;;;;;;;15.99;81.90;100958.72;4986680;28;20053;-82
2022/10/25 04:58:42;;;;;;;14.32;4.53;;;;;;;16.00;81.90;100968.53;5014838;28;20041;-82
2022/10/25 05:01:28;;;;;;;6.70;3.88;;;;;;;16.25;80.31;100975.56;5012856;28;20049;-82
2022/10/25 05:04:13;;;;;;;13.38;6.38;;;;;;;15.82;82.37;100975.44;5007032;28;20060;-82
2022/10/25 05:06:58;;;;;;;12.82;5.45;;;;;;;15.96;83.21;100988.78;5007834;28;20053;-83
2022/10/25 05:09:42;;;;;;;8.45;4.28;;;;;;;16.06;82.60;100991.84;4990044;28;20049;-81
2022/10/25 05:12:27;;;;;;;10.45;4.18;;;;;;;16.15;81.56;100997.22;5009952;28;20057;-81
2022/10/25 05:15:12;;;;;;;7.80;3.30;;;;;;;16.45;79.08;100995.00;5008804;28;20045;-83
2022/10/25 05:17:58;;;;;;;14.48;2.78;;;;;;;16.42;79.01;100988.22;5004426;28;20049;-83
2022/10/25 05:20:50;;;;;;;11.35;3.75;;;;;;;16.45;79.20;100989.50;4985674;28;20062;-84
2022/10/25 05:23:35;;;;;;;11.00;2.60;;;;;;;16.58;78.31;100980.06;4981874;28;20050;-84
2022/10/25 05:26:20;;;;;;;7.15;1.83;;;;;;;16.55;78.32;100976.06;4982865;28;20054;-84
2022/10/25 05:29:05;;;;;;;3.47;2.28;;;;;;;16.76;78.10;100986.88;4995424;28;20042;-81
2022/10/25 05:31:50;;;;;;;;;;;;;;;16.63;79.31;100996.31;4985015;28;20053;-84
2022/10/25 05:34:34;;;;;;;7.13;2.13;;;;;;;16.65;80.11;101007.75;4983401;28;20289;-84
2022/10/25 05:37:19;;;;;;;;;;;;;;;16.68;79.45;101018.84;4985883;28;20050;-83
2022/10/25 05:40:05;;;;;;;13.57;5.53;;;;;;;16.65;79.42;101018.75;5005503;28;20305;-83
2022/10/25 05:42:51;;;;;;;7.30;2.15;;;;;;;16.68;78.88;101018.03;4983333;28;20054;-84
2022/10/25 05:45:36;;;;;;;15.50;2.42;;;;;;;16.67;78.41;101022.72;4988012;28;20045;-83
2022/10/25 05:48:21;;;;;;;7.03;2.05;;;;;;;16.67;78.30;101017.25;4988096;28;20058;-84
2022/10/25 05:51:17;;;;;;;4.75;1.45;;;;;;;16.65;78.23;101024.25;4978759;28;20045;-83
2022/10/25 05:54:06;;;;;;;11.68;2.42;;;;;;;16.74;78.09;101024.09;4978933;28;20049;-83
2022/10/25 05:56:50;;;;;;;12.50;2.30;;;;;;;16.71;78.73;101024.78;4993502;28;20049;-84
2022/10/25 05:59:35;;;;;;;12.07;2.40;;;;;;;16.81;78.21;101027.81;4978515;28;20228;-84
2022/10/25 06:02:19;;;;;;;4.00;1.92;;;;;;;16.84;78.47;101027.13;5018245;28;20062;-83
2022/10/25 06:05:05;;;;;;;6.85;2.05;;;;;;;16.90;78.78;101025.75;5017174;28;20042;-83
2022/10/25 06:07:50;;;;;;;9.88;1.92;;;;;;;16.95;78.14;101033.72;5009434;28;20042;-84
2022/10/25 06:10:34;;;;;;;3.45;1.40;;;;;;;16.89;77.72;101029.63;4989871;28;20058;-83
2022/10/25 06:13:19;;;;;;;1.40;0.95;;;;;;;16.90;77.98;101024.94;5005133;28;20409;-83
2022/10/25 06:16:13;;;;;;;8.35;1.50;;;;;;;17.13;77.29;101027.91;5001351;28;20524;-83
2022/10/25 06:18:58;;;;;;;24.43;3.40;;;;;;;16.96;78.06;101037.28;5004912;28;20053;-84
2022/10/25 06:21:43;;;;;;;12.65;2.17;;;;;;;17.06;78.55;101045.03;5002762;28;20054;-83
2022/10/25 06:24:28;;;;;;;;;;;;;;;17.17;78.29;101046.09;4975938;28;20058;-84
2022/10/25 06:27:13;;;;;;;5.40;1.75;;;;;;;17.26;77.89;101054.19;4983839;28;19922;-84
2022/10/25 06:29:57;;;;;;;13.50;1.95;;;;;;;17.35;77.32;101061.13;5001186;28;20042;-83
2022/10/25 06:32:42;;;;;;;6.15;1.38;;;;;;;17.36;77.32;101070.19;4982220;28;20053;-84
2022/10/25 06:35:28;;;;;;;4.32;1.27;;;;;;;17.37;77.24;101086.28;4975140;28;20050;-84
2022/10/25 06:38:13;;;;;;;3.65;1.50;;;;;;;17.40;77.56;101076.56;4993121;28;20062;-85
2022/10/25 06:41:02;;;;;;;16.20;2.00;;;;;;;17.56;76.83;101080.13;4994419;28;20427;-82
2022/10/25 06:43:48;;;;;;;5.47;2.42;;;;;;;17.66;76.59;101090.66;4989416;28;20058;-83
2022/10/25 06:46:37;;;;;;;14.95;1.88;;;;;;;17.77;76.96;101094.47;4979595;28;20050;-83
2022/10/25 06:49:21;;;;;;;21.23;1.92;;;;;;;17.86;76.51;101097.03;4961591;29;20509;-84
2022/10/25 06:52:06;;;;;;;6.35;2.25;;;;;;;18.09;75.78;101106.25;4975209;28;20054;-85
2022/10/25 06:54:51;;;;;;;10.45;1.92;;;;;;;18.25;75.04;101101.53;4980490;28;20054;-85
2022/10/25 06:57:36;;;;;;;7.40;1.80;;;;;;;18.54;74.12;101108.53;4977784;28;20050;-85
2022/10/25 07:00:21;;;;;;;1.60;1.38;;;;;;;18.84;72.83;101110.78;4964717;28;20042;-85
2022/10/25 07:03:06;;;;;;;8.55;1.52;;;;;;;19.08;71.69;101113.25;4967997;28;20055;-85
2022/10/25 07:05:50;;;;;;;8.60;1.67;;;;;;;19.12;71.74;101114.09;4962962;29;20104;-85
2022/10/25 07:08:38;;;;;;;5.72;1.02;;;;;;;19.09;71.44;101117.59;4962389;29;20050;-86
2022/10/25 07:11:24;;;;;;;5.47;1.25;;;;;;;19.02;72.35;101128.47;4980317;28;20054;-86
2022/10/25 07:14:10;;;;;;;3.30;0.90;;;;;;;18.98;72.78;101122.88;4981318;28;20427;-86
2022/10/25 07:16:56;;;;;;;4.07;1.30;;;;;;;19.26;71.95;101125.41;4976089;28;20058;-85
2022/10/25 07:19:41;;;;;;;11.75;1.30;;;;;;;19.57;70.78;101136.31;4962314;29;20051;-85
2022/10/25 07:22:26;;;;;;;6.70;1.25;;;;;;;19.57;70.22;101133.53;4962502;29;20407;-85
2022/10/25 07:25:11;;;;;;;11.60;1.00;;;;;;;19.34;70.72;101145.66;4978888;28;20058;-86
2022/10/25 07:27:56;;;;;;;4.72;1.30;;;;;;;19.48;69.37;101141.25;4975167;28;20419;-85
2022/10/25 07:30:45;;;;;;;5.18;1.65;;;;;;;19.43;69.29;101143.47;4966865;28;20517;-86
2022/10/25 07:33:31;;;;;;;5.00;1.00;;;;;;;19.59;68.67;101149.75;4962240;29;20058;-85
2022/10/25 07:36:17;;;;;;;10.23;1.25;;;;;;;19.58;68.89;101161.94;4962150;29;20536;-86
2022/10/25 07:39:01;;;;;;;8.20;2.05;;;;;;;19.65;68.67;101162.06;4967064;28;20058;-86
2022/10/25 07:41:46;;;;;;;8.48;1.00;;;;;;;19.77;68.92;101158.34;4962798;28;20426;-86
2022/10/25 07:44:31;;;;;;;2.75;0.95;;;;;;;19.86;68.24;101156.94;4996048;28;20422;-85
2022/10/25 07:47:16;;;;;;;5.28;1.25;;;;;;;19.71;68.06;101151.53;4995653;28;20060;-85
2022/10/25 07:50:01;;;;;;;5.80;1.58;;;;;;;19.59;68.93;101161.56;4997002;28;20054;-86
2022/10/25 07:52:46;;;;;;;6.45;1.30;;;;;;;19.38;69.38;101172.16;4981487;28;20069;-83
2022/10/25 07:55:31;;;;;;;6.97;0.98;;;;;;;19.12;70.87;101177.50;4975469;28;20438;-84
2022/10/25 07:58:16;;;;;;;3.88;1.40;;;;;;;18.87;71.60;101178.94;5001012;28;20046;-83
2022/10/25 08:01:07;;;;;;;3.75;1.33;;;;;;;18.77;72.71;101189.34;5001676;28;20058;-82
2022/10/25 08:03:54;;;;;;;9.20;1.20;;;;;;;18.73;73.20;101196.75;4985035;28;20046;-82
2022/10/25 08:06:39;;;;;;;5.45;2.25;;;;;;;18.73;73.28;101198.69;5005399;28;20053;-83
2022/10/25 08:09:23;;;;;;;2.65;1.15;;;;;;;18.76;73.00;101189.72;4984632;28;20046;-84
2022/10/25 08:12:08;;;;;;;5.82;1.25;;;;;;;18.81;73.65;101205.97;5001759;28;20049;-83
2022/10/25 08:14:53;;;;;;;4.97;1.15;;;;;;;18.84;73.38;101198.94;5006073;28;20046;-84
2022/10/25 08:17:38;;;;;;;12.88;1.95;;;;;;;18.95;72.69;101188.94;4986449;28;20057;-84
2022/10/25 08:20:23;;;;;;;2.90;1.40;;;;;;;19.13;72.44;101185.44;5003287;28;20045;-82
2022/10/25 08:23:07;;;;;;;14.85;2.03;;;;;;;19.22;71.08;101186.00;4990793;28;20056;-83
2022/10/25 08:25:53;;;;;;;10.38;1.13;;;;;;;19.40;70.50;101196.63;5006228;28;20061;-83
2022/10/25 08:28:38;;;;;;;16.15;6.90;;;;;;;19.42;71.07;101188.75;4989626;28;20508;-83
2022/10/25 08:31:23;;;;;;;16.48;8.05;;;;;;;19.62;71.17;101188.41;4983626;28;20049;-82
2022/10/25 08:34:08;;;;;;;13.60;8.02;;;;;;;19.70;70.99;101192.13;4996703;28;20706;-82
2022/10/25 08:36:52;;;;;;;17.33;8.18;;;;;;;19.69;70.78;101190.53;5030148;22;20061;-75
2022/10/25 08:39:37;;;;;;;21.20;8.25;;;;;;;19.50;71.73;101199.63;5012128;28;20049;-77
2022/10/25 08:42:32;;;;;;;14.13;8.23;;;;;;;19.47;71.23;101189.31;5012793;28;20053;-76
2022/10/25 08:45:27;;;;;;;;;;;;;;;19.41;71.96;101196.25;4995653;28;20064;-77
2022/10/25 08:48:18;;;;;;;17.17;7.40;;;;;;;19.64;71.38;101191.63;5013497;28;20307;-77
2022/10/25 08:51:25;;;;;;;12.38;6.97;;;;;;;20.09;69.74;101201.13;5009507;28;20060;-78
2022/10/25 08:54:39;;;;;;;17.95;7.05;;;;;;;20.42;67.78;101198.56;5016542;28;20045;-78
2022/10/25 08:57:28;;;;;;;24.00;6.57;;;;;;;20.16;68.43;101198.50;5019566;28;20056;-78
2022/10/25 09:00:19;;;;;;;20.52;7.45;;;;;;;19.89;69.39;101210.63;5019661;28;20421;-79
2022/10/25 09:03:15;;;;;;;19.30;6.28;;;;;;;19.92;69.14;101210.66;5018968;28;20045;-79
2022/10/25 09:06:18;;;;;;;;;;;;;;;19.92;69.08;101210.66;5019619;28;20519;-79
2022/10/25 09:09:18;;;;;;;11.32;5.03;;;;;;;20.06;68.52;101216.44;5019101;28;19913;-79
2022/10/25 09:12:02;;;;;;;10.30;6.40;;;;;;;20.13;68.07;101215.78;5022732;28;20041;-79
2022/10/25 09:14:58;;;;;;;17.10;7.10;;;;;;;20.15;67.79;101220.94;5018674;28;20053;-78
2022/10/25 09:17:52;;;;;;;14.45;6.00;;;;;;;20.01;69.16;101225.03;5018533;28;20056;-77
2022/10/25 09:20:47;;;;;;;15.02;5.38;;;;;;;19.94;68.42;101213.06;5021904;28;20041;-80
2022/10/25 09:23:32;;;;;;;11.68;5.82;;;;;;;20.02;68.93;101217.56;5017769;28;20523;-78
2022/10/25 09:26:24;;;;;;;13.10;6.00;;;;;;;20.15;68.62;101229.22;5017491;28;20069;-78
2022/10/25 09:29:17;;;;;;;15.52;5.88;;;;;;;20.24;67.97;101235.31;5020243;28;20249;-78
2022/10/25 09:32:10;;;;;;;11.82;6.10;;;;;;;20.31;68.13;101233.50;5017257;28;20049;-78
2022/10/25 09:34:55;;;;;;;12.13;6.45;;;;;;;20.37;67.67;101236.75;5017918;28;20409;-80
2022/10/25 09:37:46;;;;;;;9.38;5.15;;;;;;;20.38;66.95;101243.88;5018221;28;20078;-78
2022/10/25 09:40:40;;;;;;;8.27;4.88;;;;;;;20.39;67.22;101240.75;5017694;28;20049;-77
2022/10/25 09:43:34;;;;;;;8.15;4.53;;;;;;;20.26;67.99;101255.88;5025003;28;20049;-78
2022/10/25 09:46:26;;;;;;;10.23;4.03;;;;;;;20.35;67.28;101250.94;5037193;28;20396;-78
2022/10/25 09:49:12;;;;;;;11.88;4.60;;;;;;;20.38;67.41;101261.25;5036482;28;20049;-77
2022/10/25 09:52:15;;;;;;;15.75;4.10;;;;;;;20.44;66.85;101257.00;5040617;28;20060;-78
2022/10/25 09:55:06;;;;;;;14.63;4.82;;;;;;;20.53;66.45;101265.03;5037138;28;20500;-78
2022/10/25 09:57:50;;;;;;;7.60;3.72;;;;;;;20.51;66.31;101258.31;5036560;28;20044;-77
2022/10/25 10:00:39;;;;;;;11.50;4.38;;;;;;;20.44;66.75;101265.31;5039428;28;20056;-79
2022/10/25 10:03:29;;;;;;;7.72;4.47;;;;;;;20.44;66.58;101267.25;5036030;28;20052;-79
2022/10/25 10:06:22;;;;;;;13.18;4.57;;;;;;;20.72;65.71;101266.94;5036141;28;20053;-77
2022/10/25 10:09:12;;;;;;;6.80;3.05;;;;;;;21.02;64.73;101270.59;5038453;28;20052;-79
2022/10/25 10:11:59;;;;;;;20.15;4.22;;;;;;;21.17;63.71;101268.84;5036351;28;20052;-79
2022/10/25 10:14:51;;;;;;;7.53;4.13;;;;;;;21.52;62.29;101266.56;5036034;28;20052;-77
2022/10/25 10:17:36;;;;;;;8.27;4.45;;;;;;;21.68;62.06;101263.59;5037604;28;20408;-79
2022/10/25 10:20:21;;;;;;;15.77;4.43;;;;;;;21.72;61.78;101264.44;5026755;28;20064;-79
2022/10/25 10:23:12;;;;;;;10.63;3.97;;;;;;;21.52;62.13;101263.81;5019549;28;20052;-78
2022/10/25 10:26:31;;;;;;;7.65;4.43;;;;;;;21.65;61.48;101264.34;5016091;28;20048;-76
2022/10/25 10:29:22;;;;;;;8.85;4.47;;;;;;;21.28;62.82;101253.22;5015933;28;20405;-79
2022/10/25 10:32:30;;;;;;;7.07;3.50;;;;;;;21.25;63.34;101256.69;5015750;28;20053;-77
2022/10/25 10:35:31;;;;;;;12.65;3.42;;;;;;;21.12;63.88;101255.31;5015714;28;20060;-78
2022/10/25 10:38:26;;;;;;;7.50;3.40;;;;;;;21.08;64.29;101254.47;5015437;28;20041;-75
2022/10/25 10:41:23;;;;;;;5.85;4.13;;;;;;;21.18;64.06;101242.78;5015281;28;20065;-78
2022/10/25 10:44:12;;;;;;;6.07;3.40;;;;;;;21.32;63.42;101254.03;5017673;28;20053;-78
2022/10/25 10:46:57;;;;;;;8.25;3.72;;;;;;;21.51;62.83;101244.78;5016392;28;20500;-77
2022/10/25 10:49:42;;;;;;;18.67;3.70;;;;;;;21.41;63.11;101245.44;5014886;28;20519;-77
2022/10/25 10:52:42;;;;;;;10.32;4.10;;;;;;;21.52;62.89;101241.66;5018944;28;20064;-77
2022/10/25 10:55:30;;;;;;;7.80;3.60;;;;;;;21.73;61.89;101246.66;5016564;28;20065;-78
2022/10/25 10:58:23;;;;;;;6.40;4.00;;;;;;;22.03;60.98;101247.41;5014668;28;20052;-78
2022/10/25 11:01:09;;;;;;;6.53;4.43;;;;;;;22.32;59.75;101245.72;5023608;28;20065;-77
2022/10/25 11:03:59;;;;;;;9.52;4.40;;;;;;;22.55;59.13;101245.53;5022181;28;20060;-77
2022/10/25 11:06:43;;;;;;;8.77;3.60;;;;;;;22.49;58.75;101247.84;5010710;28;21235;-77
2022/10/25 11:09:28;;;;;;;8.88;3.95;;;;;;;22.37;59.70;101236.25;5019667;28;20060;-75
2022/10/25 11:12:17;;;;;;;7.07;3.47;;;;;;;22.37;59.59;101244.56;5017790;28;20060;-76
2022/10/25 11:15:12;;;;;;;11.55;4.07;;;;;;;22.48;58.49;101240.72;5011791;28;20420;-79
2022/10/25 11:18:02;;;;;;;9.15;4.18;;;;;;;22.55;58.72;101231.66;5016672;28;20519;-78
2022/10/25 11:20:58;;;;;;;7.65;3.63;;;;;;;22.55;58.78;101237.97;5018300;28;20049;-77
2022/10/25 11:24:05;;;;;;;6.22;3.78;;;;;;;22.52;59.08;101233.22;5027090;28;20558;-78
2022/10/25 11:27:12;;;;;;;5.10;3.45;;;;;;;22.64;58.51;101237.66;5016635;28;20381;-79
2022/10/25 11:30:01;;;;;;;5.68;3.15;;;;;;;22.80;57.88;101232.69;5019753;28;20037;-76
2022/10/25 11:33:07;;;;;;;10.27;4.03;;;;;;;23.34;56.27;101233.78;5020858;28;20053;-77
2022/10/25 11:36:07;;;;;;;7.72;3.40;;;;;;;23.12;56.71;101232.84;5007222;28;20041;-76
2022/10/25 11:39:04;;;;;;;9.00;3.10;;;;;;;23.19;56.64;101229.34;5019740;28;20045;-78
2022/10/25 11:42:11;;;;;;;8.30;3.35;;;;;;;23.55;55.50;101225.56;5021939;28;20049;-78
2022/10/25 11:45:16;;;;;;;38.85;4.50;;;;;;;23.61;55.25;101217.66;5012548;28;20053;-78
2022/10/25 11:48:32;;;;;;;8.05;3.45;;;;;;;23.57;55.06;101219.63;5024539;28;20417;-79
2022/10/25 11:51:16;;;;;;;7.75;3.63;;;;;;;23.55;55.38;101216.44;5025799;28;20053;-80
2022/10/25 11:54:07;;;;;;;;;;;;;;;24.09;53.46;101209.81;5020791;28;20620;-79
2022/10/25 11:57:19;;;;;;;10.43;3.05;;;;;;;24.07;53.40;101209.44;5027165;28;20372;-78
2022/10/25 12:00:18;;;;;;;5.15;3.08;;;;;;;23.92;53.29;101214.19;5031100;28;20052;-79
2022/10/25 12:03:33;;;;;;;5.68;3.45;;;;;;;24.71;51.18;101207.47;5035820;28;20419;-79
2022/10/25 12:06:39;;;;;;;20.92;4.18;;;;;;;24.80;50.83;101212.63;5014711;28;20036;-79
2022/10/25 12:09:50;;;;;;;9.35;3.75;;;;;;;24.91;50.66;101207.88;5007473;28;20048;-79
2022/10/25 12:12:58;;;;;;;5.78;3.00;;;;;;;24.49;51.05;101198.34;5012432;28;20416;-78
2022/10/25 12:15:47;;;;;;;6.10;4.20;;;;;;;24.44;51.50;101192.38;5024989;28;20049;-78
2022/10/25 12:18:48;;;;;;;5.07;2.88;;;;;;;24.55;51.51;101195.97;5009287;28;20045;-78
2022/10/25 12:21:58;;;;;;;7.10;3.25;;;;;;;24.66;51.36;101197.53;5021847;28;20045;-80
2022/10/25 12:25:03;;;;;;;9.43;3.42;;;;;;;24.96;50.09;101187.97;5019007;28;20049;-81
2022/10/25 12:27:59;;;;;;;8.48;2.92;;;;;;;25.31;49.23;101187.84;5025275;28;20049;-78
2022/10/25 12:30:45;;;;;;;12.80;4.15;;;;;;;25.72;48.04;101184.50;5009462;28;20551;-80
2022/10/25 12:34:05;;;;;;;11.55;2.88;;;;;;;27.31;43.98;101194.25;5009541;28;20053;-80
2022/10/25 12:36:56;;;;;;;11.15;3.30;;;;;;;29.33;39.48;101182.56;5011178;28;20037;-82
2022/10/25 12:39:44;;;;;;;4.97;3.10;;;;;;;30.96;36.15;101192.66;5011428;28;20053;-82
2022/10/25 12:42:51;;;;;;;5.78;2.97;;;;;;;32.09;34.02;101199.72;5015279;28;20512;-80
2022/10/25 12:46:13;;;;;;;9.35;3.30;;;;;;;32.67;32.63;101186.13;5012885;28;20057;-82
2022/10/25 12:49:22;;;;;;;10.23;3.20;;;;;;;33.42;31.17;101182.16;5012686;28;20041;-80
2022/10/25 12:52:30;;;;;;;8.10;4.75;;;;;;;33.45;30.92;101186.09;5011326;28;20057;-79
2022/10/25 12:55:27;;;;;;;4.95;3.55;;;;;;;33.32;30.89;101188.97;5010829;28;20045;-82
2022/10/25 12:58:58;;;;;;;4.80;3.80;;;;;;;32.19;32.28;101185.34;5014629;28;20049;-81
2022/10/25 13:02:08;;;;;;;7.60;4.18;;;;;;;32.54;31.95;101188.19;5015548;28;20053;-82
2022/10/25 13:05:23;;;;;;;7.93;3.95;;;;;;;33.15;31.02;101181.19;5020174;28;20065;-81
2022/10/25 13:08:10;;;;;;;8.25;4.38;;;;;;;32.65;31.28;101186.59;5008125;28;20041;-81